Time;durP1;ratioP1;P1;durP2;ratioP2;P2;SDS_P1;SDS_P2;PMS_P1;PMS_P2;Temp;Humidity;BMP_temperature;BMP_pressure;BME280_temperature;BME280_humidity;BME280_pressure;Samples;Min_cycle;Max_cycle;Signal;HPM_P1;HPM_P2
2022/03/05 00:00:13;;;;;;;12.48;7.85;;;1.70;99.90;;;;;;5039818;28;20033;-69
2022/03/05 00:02:40;;;;;;;13.35;8.40;;;1.60;99.90;;;;;;5031891;28;20055;-70
2022/03/05 00:05:06;;;;;;;11.77;7.10;;;1.70;99.90;;;;;;5042818;28;20047;-69
2022/03/05 00:07:32;;;;;;;10.70;7.32;;;1.60;99.90;;;;;;5038119;28;21046;-69
2022/03/05 00:09:58;;;;;;;14.57;8.02;;;1.60;99.90;;;;;;5029401;28;20041;-69
2022/03/05 00:12:23;;;;;;;14.18;8.57;;;1.60;99.90;;;;;;5041080;28;20390;-69
2022/03/05 00:14:49;;;;;;;14.05;7.82;;;1.60;99.90;;;;;;5025247;28;20404;-70
2022/03/05 00:17:15;;;;;;;11.80;7.60;;;1.60;99.90;;;;;;5018264;28;20049;-69
2022/03/05 00:19:41;;;;;;;12.85;7.80;;;1.60;99.90;;;;;;5037923;28;20132;-70
2022/03/05 00:22:06;;;;;;;15.48;8.20;;;1.50;99.90;;;;;;5050174;28;20166;-69
2022/03/05 00:24:32;;;;;;;15.82;9.10;;;1.50;99.90;;;;;;5024062;28;20499;-70
2022/03/05 00:26:58;;;;;;;14.57;8.52;;;1.50;99.90;;;;;;5038823;28;20048;-69
2022/03/05 00:29:25;;;;;;;10.63;7.68;;;1.50;99.90;;;;;;5036304;28;20298;-69
2022/03/05 00:31:51;;;;;;;11.10;8.02;;;1.50;99.90;;;;;;5021553;28;20490;-70
2022/03/05 00:34:17;;;;;;;12.95;8.27;;;1.50;99.90;;;;;;5024609;28;20044;-69
2022/03/05 00:36:43;;;;;;;15.98;8.38;;;1.40;99.90;;;;;;5020228;28;20233;-69
2022/03/05 00:39:08;;;;;;;14.20;7.85;;;1.40;99.90;;;;;;5040717;28;20029;-70
2022/03/05 00:41:34;;;;;;;15.77;9.40;;;1.40;99.90;;;;;;5041358;28;20536;-70
2022/03/05 00:44:00;;;;;;;13.00;8.07;;;1.40;99.90;;;;;;5042423;28;20357;-70
2022/03/05 00:46:26;;;;;;;13.77;8.32;;;1.40;99.90;;;;;;5037423;28;20482;-69
2022/03/05 00:48:53;;;;;;;12.45;8.25;;;1.40;99.90;;;;;;5045636;28;20144;-69
2022/03/05 00:51:19;;;;;;;15.15;9.25;;;1.30;99.90;;;;;;5043280;28;20029;-70
2022/03/05 00:53:45;;;;;;;14.88;8.95;;;1.30;99.90;;;;;;5040034;28;20043;-70
2022/03/05 00:56:11;;;;;;;12.52;9.18;;;1.30;99.90;;;;;;5032907;28;20037;-69
2022/03/05 00:58:37;;;;;;;12.18;7.60;;;1.30;99.90;;;;;;5035794;28;20037;-69
2022/03/05 01:01:03;;;;;;;18.27;9.10;;;1.30;99.90;;;;;;5047869;28;20117;-69
2022/03/05 01:03:29;;;;;;;14.30;9.00;;;1.20;99.90;;;;;;5045075;28;20188;-70
2022/03/05 01:05:54;;;;;;;14.88;9.55;;;1.20;99.90;;;;;;5047011;28;20056;-69
2022/03/05 01:08:20;;;;;;;14.30;9.23;;;1.20;99.90;;;;;;5042499;28;20043;-69
2022/03/05 01:10:46;;;;;;;15.43;10.27;;;1.20;99.90;;;;;;5032040;28;20098;-69
2022/03/05 01:13:13;;;;;;;17.08;8.95;;;1.20;99.90;;;;;;5044946;28;20079;-69
2022/03/05 01:15:38;;;;;;;17.33;10.20;;;1.20;99.90;;;;;;5028317;28;20529;-69
2022/03/05 01:18:04;;;;;;;14.48;8.43;;;1.20;99.90;;;;;;5047837;28;20068;-68
2022/03/05 01:20:30;;;;;;;12.98;8.65;;;1.10;99.90;;;;;;5045573;28;20045;-68
2022/03/05 01:22:56;;;;;;;14.10;8.23;;;1.10;99.90;;;;;;5027262;28;20454;-68
2022/03/05 01:25:22;;;;;;;11.30;6.70;;;1.20;99.90;;;;;;5040138;28;20077;-68
2022/03/05 01:27:49;;;;;;;17.90;9.07;;;1.10;99.90;;;;;;5026547;28;20053;-68
2022/03/05 01:30:15;;;;;;;11.55;7.72;;;1.10;99.90;;;;;;5054713;28;20045;-68
2022/03/05 01:32:42;;;;;;;13.75;9.02;;;1.10;99.90;;;;;;5045631;28;20176;-67
2022/03/05 01:35:08;;;;;;;12.13;8.73;;;1.00;99.90;;;;;;5047179;28;20504;-68
2022/03/05 01:37:34;;;;;;;15.85;8.40;;;1.00;99.90;;;;;;5008113;28;20127;-67
2022/03/05 01:40:00;;;;;;;14.40;7.93;;;1.00;99.90;;;;;;5042961;28;20183;-68
2022/03/05 01:42:26;;;;;;;13.68;9.55;;;1.00;99.90;;;;;;5044092;28;20087;-68
2022/03/05 01:44:52;;;;;;;13.18;7.85;;;0.90;99.90;;;;;;5047349;28;20064;-68
2022/03/05 01:47:19;;;;;;;12.02;8.18;;;1.00;99.90;;;;;;5043121;28;20048;-68
2022/03/05 01:49:45;;;;;;;15.20;8.13;;;1.00;99.90;;;;;;5028488;28;20060;-68
2022/03/05 01:52:11;;;;;;;13.63;8.60;;;0.90;99.90;;;;;;5035312;28;20049;-68
2022/03/05 01:54:38;;;;;;;11.98;7.50;;;0.90;99.90;;;;;;5030948;28;20044;-68
2022/03/05 01:57:04;;;;;;;14.30;9.02;;;0.90;99.90;;;;;;5025725;28;20130;-68
2022/03/05 01:59:30;;;;;;;14.18;9.57;;;0.90;99.90;;;;;;5045802;28;20044;-68
2022/03/05 02:01:56;;;;;;;15.50;9.02;;;0.90;99.90;;;;;;5041108;28;20033;-68
2022/03/05 02:04:22;;;;;;;13.82;8.73;;;0.90;99.90;;;;;;5011576;28;20049;-68
2022/03/05 02:06:48;;;;;;;17.42;8.20;;;0.90;99.90;;;;;;5047423;28;20123;-67
2022/03/05 02:09:14;;;;;;;14.27;8.45;;;0.90;99.90;;;;;;5041419;28;20507;-68
2022/03/05 02:11:40;;;;;;;12.43;8.27;;;0.90;99.90;;;;;;5043864;28;20561;-68
2022/03/05 02:14:06;;;;;;;14.38;8.55;;;0.90;99.90;;;;;;5042456;28;20053;-68
2022/03/05 02:16:32;;;;;;;15.20;8.00;;;0.80;99.90;;;;;;5011788;28;20048;-67
2022/03/05 02:18:58;;;;;;;18.67;10.05;;;0.80;99.90;;;;;;5030298;28;20053;-68
2022/03/05 02:21:25;;;;;;;11.27;7.53;;;0.80;99.90;;;;;;5026011;28;20072;-67
2022/03/05 02:23:51;;;;;;;13.93;8.80;;;0.70;99.90;;;;;;5040142;28;20584;-68
2022/03/05 02:26:17;;;;;;;13.68;7.15;;;0.70;99.90;;;;;;5047699;28;20069;-69
2022/03/05 02:28:43;;;;;;;18.73;8.77;;;0.70;99.90;;;;;;5028119;28;20060;-69
2022/03/05 02:31:10;;;;;;;13.10;7.82;;;0.70;99.90;;;;;;5039927;28;20507;-68
2022/03/05 02:33:35;;;;;;;13.18;7.35;;;0.70;99.90;;;;;;5028513;28;20391;-68
2022/03/05 02:36:02;;;;;;;14.30;8.30;;;0.70;99.90;;;;;;5047086;28;20049;-68
2022/03/05 02:38:28;;;;;;;12.85;7.05;;;0.60;99.90;;;;;;5042541;28;20129;-69
2022/03/05 02:40:54;;;;;;;14.23;7.25;;;0.60;99.90;;;;;;5042010;28;20124;-69
2022/03/05 02:43:21;;;;;;;12.50;7.68;;;0.70;99.90;;;;;;5028568;28;20188;-68
2022/03/05 02:45:47;;;;;;;11.50;6.55;;;0.60;99.90;;;;;;5038432;28;20506;-68
2022/03/05 02:48:15;;;;;;;12.95;7.60;;;0.60;99.90;;;;;;5025722;28;20131;-69
2022/03/05 02:50:42;;;;;;;9.60;6.22;;;0.60;99.90;;;;;;5011636;28;20091;-69
2022/03/05 02:53:08;;;;;;;12.07;7.22;;;0.70;99.90;;;;;;5047127;28;20441;-69
2022/03/05 02:55:35;;;;;;;14.40;7.10;;;0.70;99.90;;;;;;5026726;28;20053;-69
2022/03/05 02:58:01;;;;;;;12.65;7.00;;;0.70;99.90;;;;;;5042492;28;20132;-68
2022/03/05 03:00:27;;;;;;;11.73;6.90;;;0.70;99.90;;;;;;5046285;28;20453;-69
2022/03/05 03:02:53;;;;;;;10.90;7.13;;;0.60;99.90;;;;;;5027050;28;20078;-69
2022/03/05 03:05:19;;;;;;;10.77;6.63;;;0.70;99.90;;;;;;5038764;28;20506;-68
2022/03/05 03:07:45;;;;;;;13.65;7.65;;;0.60;99.90;;;;;;5049518;28;20048;-68
2022/03/05 03:10:12;;;;;;;12.32;7.05;;;0.70;99.90;;;;;;5044579;28;20120;-68
2022/03/05 03:12:39;;;;;;;12.13;6.50;;;0.70;99.90;;;;;;5041585;28;20394;-69
2022/03/05 03:15:11;;;;;;;12.93;6.32;;;0.60;99.90;;;;;;5028433;28;20479;-68
2022/03/05 03:17:47;;;;;;;13.90;7.38;;;0.60;99.90;;;;;;5042495;28;20033;-68
2022/03/05 03:20:17;;;;;;;13.55;7.65;;;0.50;99.90;;;;;;5022208;28;20050;-68
2022/03/05 03:22:44;;;;;;;14.07;7.72;;;0.50;99.90;;;;;;5020981;28;20037;-68
2022/03/05 03:25:10;;;;;;;11.98;6.85;;;0.40;99.90;;;;;;5042347;28;20052;-69
2022/03/05 03:27:36;;;;;;;11.30;7.95;;;0.40;99.90;;;;;;5022281;28;20104;-68
2022/03/05 03:30:04;;;;;;;11.52;7.15;;;0.40;99.90;;;;;;5046332;28;20302;-68
2022/03/05 03:32:30;;;;;;;15.02;8.68;;;0.40;99.90;;;;;;5026235;28;20043;-69
2022/03/05 03:34:56;;;;;;;14.35;8.05;;;0.30;99.90;;;;;;5043877;28;20037;-68
2022/03/05 03:37:21;;;;;;;12.07;7.72;;;0.30;99.90;;;;;;5035419;28;20049;-69
2022/03/05 03:39:47;;;;;;;13.48;8.35;;;0.30;99.90;;;;;;5025244;28;20121;-68
2022/03/05 03:42:14;;;;;;;13.85;7.15;;;0.30;99.90;;;;;;5027391;28;20036;-69
2022/03/05 03:44:40;;;;;;;12.18;7.03;;;0.30;99.90;;;;;;5039550;28;20040;-68
2022/03/05 03:47:06;;;;;;;14.15;7.03;;;0.30;99.90;;;;;;5021144;28;20052;-68
2022/03/05 03:49:32;;;;;;;13.48;6.82;;;0.30;99.90;;;;;;5038712;28;20503;-69
2022/03/05 03:51:58;;;;;;;11.13;7.43;;;0.30;99.90;;;;;;5041923;28;20517;-69
2022/03/05 03:54:24;;;;;;;16.08;7.78;;;0.30;99.90;;;;;;5006539;28;20402;-68
2022/03/05 03:56:50;;;;;;;11.52;7.35;;;0.20;99.90;;;;;;5044024;28;20090;-69
2022/03/05 03:59:16;;;;;;;14.70;7.68;;;0.20;99.90;;;;;;5037413;28;20609;-68
2022/03/05 04:01:41;;;;;;;15.20;8.38;;;0.20;99.90;;;;;;5039360;28;20098;-68
2022/03/05 04:04:07;;;;;;;15.27;7.93;;;0.20;99.90;;;;;;5035795;28;20032;-68
2022/03/05 04:09:17;;;;;;;14.85;7.40;;;0.20;99.90;;;;;;5041496;28;20059;-68
2022/03/05 04:11:43;;;;;;;11.60;7.60;;;0.20;99.90;;;;;;5020418;28;20041;-68
2022/03/05 04:14:09;;;;;;;9.73;6.30;;;0.20;99.90;;;;;;5043964;28;20112;-68
2022/03/05 04:16:35;;;;;;;13.52;8.55;;;0.20;99.90;;;;;;5039699;28;20048;-68
2022/03/05 04:19:04;;;;;;;11.93;7.68;;;0.20;99.90;;;;;;5032771;28;20546;-68
2022/03/05 04:21:30;;;;;;;14.90;8.27;;;0.20;99.90;;;;;;5014189;28;20112;-68
2022/03/05 04:23:56;;;;;;;10.23;7.30;;;0.20;99.90;;;;;;5041762;28;20037;-68
2022/03/05 04:26:21;;;;;;;14.93;8.30;;;0.10;99.90;;;;;;5055614;28;20128;-69
2022/03/05 04:28:47;;;;;;;12.75;7.45;;;0.20;99.90;;;;;;5011527;28;20231;-68
2022/03/05 04:31:13;;;;;;;12.48;7.22;;;0.20;99.90;;;;;;5038233;28;20037;-68
2022/03/05 04:33:39;;;;;;;14.27;8.35;;;0.20;99.90;;;;;;5049656;28;20044;-67
2022/03/05 04:36:05;;;;;;;12.68;7.55;;;0.20;99.90;;;;;;5043766;28;20122;-68
2022/03/05 04:38:31;;;;;;;14.32;8.63;;;0.10;99.90;;;;;;5051428;28;20041;-68
2022/03/05 04:40:57;;;;;;;15.25;7.82;;;0.10;99.90;;;;;;5030484;28;20159;-68
2022/03/05 04:43:23;;;;;;;14.52;8.13;;;0.10;99.90;;;;;;5029072;28;20033;-67
2022/03/05 04:45:49;;;;;;;13.52;8.15;;;0.10;99.90;;;;;;5043426;28;20029;-68
2022/03/05 04:48:15;;;;;;;15.23;8.20;;;0.10;99.90;;;;;;5043507;28;20044;-68
2022/03/05 04:50:41;;;;;;;12.55;7.40;;;0.10;99.90;;;;;;5011002;28;20072;-68
2022/03/05 04:53:06;;;;;;;12.50;7.47;;;0.00;99.90;;;;;;5043672;28;20056;-68
2022/03/05 04:55:32;;;;;;;11.95;6.85;;;0.00;99.90;;;;;;5027177;28;20037;-68
2022/03/05 04:57:58;;;;;;;13.70;7.68;;;0.00;99.90;;;;;;5037610;28;20132;-68
2022/03/05 05:00:24;;;;;;;14.10;7.57;;;-0.10;99.90;;;;;;5031322;28;20045;-68
2022/03/05 05:02:50;;;;;;;13.63;7.75;;;0.00;99.90;;;;;;5046628;28;20036;-68
2022/03/05 05:05:16;;;;;;;14.52;8.02;;;-0.10;99.90;;;;;;5036994;28;20037;-69
2022/03/05 05:07:42;;;;;;;16.08;7.70;;;-0.10;99.90;;;;;;5049301;28;20041;-69
2022/03/05 05:10:08;;;;;;;14.00;7.85;;;-0.10;99.90;;;;;;4995753;28;20044;-68
2022/03/05 05:12:34;;;;;;;15.30;8.02;;;-0.10;99.90;;;;;;5042125;28;20049;-68
2022/03/05 05:14:59;;;;;;;14.13;7.25;;;-0.20;99.90;;;;;;5033156;28;20045;-68
2022/03/05 05:17:25;;;;;;;12.00;7.15;;;-0.20;99.90;;;;;;5032932;28;20539;-68
2022/03/05 05:19:52;;;;;;;14.63;8.02;;;-0.20;99.90;;;;;;5044190;28;20045;-69
2022/03/05 05:22:17;;;;;;;11.65;7.35;;;-0.20;99.90;;;;;;5042892;28;20421;-68
2022/03/05 05:24:43;;;;;;;11.20;7.45;;;-0.20;99.90;;;;;;5044505;28;20045;-68
2022/03/05 05:27:09;;;;;;;12.65;7.38;;;-0.20;99.90;;;;;;5030361;28;20033;-69
2022/03/05 05:29:35;;;;;;;14.15;8.57;;;-0.30;99.90;;;;;;5027306;28;20311;-69
2022/03/05 05:32:01;;;;;;;17.33;8.95;;;-0.30;99.90;;;;;;5018579;28;20036;-68
2022/03/05 05:34:27;;;;;;;17.02;8.93;;;-0.30;99.90;;;;;;5041514;28;20081;-69
2022/03/05 05:36:52;;;;;;;10.13;7.38;;;-0.30;99.90;;;;;;5024263;28;20372;-70
2022/03/05 05:39:18;;;;;;;14.60;7.70;;;-0.40;99.90;;;;;;5048989;28;20163;-69
2022/03/05 05:41:44;;;;;;;11.45;7.68;;;-0.40;99.90;;;;;;5034131;28;20665;-68
2022/03/05 05:44:11;;;;;;;13.80;8.40;;;-0.40;99.90;;;;;;5042026;28;20037;-69
2022/03/05 05:46:38;;;;;;;14.98;7.60;;;-0.40;99.90;;;;;;5036801;28;20220;-69
2022/03/05 05:49:04;;;;;;;14.43;8.27;;;-0.50;99.90;;;;;;5046905;28;20036;-70
2022/03/05 05:51:32;;;;;;;10.60;7.15;;;-0.50;99.90;;;;;;5026611;28;20688;-70
2022/03/05 05:53:57;;;;;;;11.02;8.13;;;-0.50;99.90;;;;;;5051332;28;20077;-70
2022/03/05 05:56:24;;;;;;;12.50;8.02;;;-0.50;99.90;;;;;;5030601;28;20074;-69
2022/03/05 05:58:50;;;;;;;16.80;9.05;;;-0.50;99.90;;;;;;5041911;28;20516;-70
2022/03/05 06:01:17;;;;;;;14.50;8.98;;;-0.50;99.90;;;;;;5050739;28;20064;-68
2022/03/05 06:03:44;;;;;;;10.77;7.85;;;-0.50;99.90;;;;;;5032147;28;20101;-68
2022/03/05 06:06:11;;;;;;;14.23;7.82;;;-0.50;99.90;;;;;;5050618;28;20055;-68
